createdAt,value
2023-06-16T00:01:40.743Z,20.53
2023-06-16T00:04:09.923Z,20.49
2023-06-16T00:06:38.323Z,20.45
2023-06-16T00:09:05.773Z,20.51
2023-06-16T00:11:34.367Z,20.56
2023-06-16T00:14:01.804Z,20.55
2023-06-16T00:16:29.266Z,20.52
2023-06-16T00:18:59.684Z,20.51
2023-06-16T00:21:28.644Z,20.48
2023-06-16T00:23:56.649Z,20.44
2023-06-16T00:26:24.762Z,20.39
2023-06-16T00:28:52.301Z,20.37
2023-06-16T00:31:19.944Z,20.34
2023-06-16T00:33:47.965Z,20.30
2023-06-16T00:36:17.149Z,20.26
2023-06-16T00:38:44.688Z,20.31
2023-06-16T00:41:12.317Z,20.34
2023-06-16T00:43:39.686Z,20.25
2023-06-16T00:46:11.203Z,20.15
2023-06-16T00:48:38.645Z,20.11
2023-06-16T00:51:06.438Z,20.06
2023-06-16T00:53:33.984Z,20.03
2023-06-16T00:56:01.529Z,19.98
2023-06-16T00:58:29.790Z,19.92
2023-06-16T01:00:57.337Z,19.93
2023-06-16T01:03:24.843Z,19.94
2023-06-16T01:05:57.549Z,19.88
2023-06-16T01:08:45.899Z,19.81
2023-06-16T01:11:51.926Z,19.76
2023-06-16T01:14:44.816Z,19.70
2023-06-16T01:17:13.227Z,19.59
2023-06-16T01:19:51.365Z,19.50
2023-06-16T01:22:48.311Z,19.52
2023-06-16T01:25:16.650Z,19.52
2023-06-16T01:27:49.048Z,19.47
2023-06-16T01:30:17.040Z,19.43
2023-06-16T01:32:45.318Z,19.41
2023-06-16T01:35:13.604Z,19.38
2023-06-16T01:37:41.102Z,19.34
2023-06-16T01:40:09.340Z,19.40
2023-06-16T01:42:36.815Z,19.47
2023-06-16T01:45:04.852Z,19.42
2023-06-16T01:47:32.430Z,19.35
2023-06-16T01:50:00.189Z,19.28
2023-06-16T01:52:27.723Z,19.20
2023-06-16T01:54:55.177Z,19.16
2023-06-16T01:57:22.672Z,19.18
2023-06-16T02:00:04.466Z,19.19
2023-06-16T02:02:44.682Z,19.13
2023-06-16T02:05:12.839Z,19.07
2023-06-16T02:07:42.365Z,19.01
2023-06-16T02:10:11.396Z,18.95
2023-06-16T02:12:38.912Z,18.89
2023-06-16T02:15:08.452Z,18.89
2023-06-16T02:17:35.929Z,18.92
2023-06-16T02:20:07.157Z,18.87
2023-06-16T02:22:35.958Z,18.81
2023-06-16T02:25:03.723Z,18.75
2023-06-16T02:27:31.416Z,18.72
2023-06-16T02:29:59.175Z,18.78
2023-06-16T02:32:28.266Z,18.88
2023-06-16T02:34:57.482Z,18.91
2023-06-16T02:37:26.899Z,18.97
2023-06-16T02:39:56.953Z,19.01
2023-06-16T02:42:24.509Z,19.04
2023-06-16T02:44:52.019Z,19.08
2023-06-16T02:47:19.719Z,19.18
2023-06-16T02:49:47.822Z,19.28
2023-06-16T02:52:15.368Z,19.33
2023-06-16T02:54:43.523Z,19.36
2023-06-16T02:57:14.783Z,19.36
2023-06-16T02:59:46.662Z,19.38
2023-06-16T03:02:14.156Z,19.37
2023-06-16T03:05:02.492Z,19.47
2023-06-16T03:07:35.527Z,19.54
2023-06-16T03:10:04.378Z,19.56
2023-06-16T03:12:41.798Z,19.58
2023-06-16T03:15:10.928Z,19.59
2023-06-16T03:17:39.214Z,19.61
2023-06-16T03:20:08.331Z,19.72
2023-06-16T03:22:45.763Z,19.80
2023-06-16T03:25:13.598Z,19.79
2023-06-16T03:27:45.206Z,19.78
2023-06-16T03:30:17.205Z,19.80
2023-06-16T03:32:53.889Z,19.81
2023-06-16T03:35:21.693Z,19.89
2023-06-16T03:37:49.260Z,19.97
2023-06-16T03:40:19.438Z,20.01
2023-06-16T03:42:48.009Z,20.05
2023-06-16T03:45:16.199Z,20.07
2023-06-16T03:47:44.139Z,20.13
2023-06-16T03:50:12.542Z,20.29
2023-06-16T03:52:42.502Z,20.43
2023-06-16T03:55:10.289Z,20.52
2023-06-16T03:57:38.335Z,20.59
2023-06-16T04:00:10.506Z,20.67
2023-06-16T04:02:49.641Z,20.76
2023-06-16T04:05:25.975Z,20.83
2023-06-16T04:07:58.947Z,20.93
2023-06-16T04:10:26.452Z,21.11
2023-06-16T04:12:55.339Z,21.26
2023-06-16T04:15:25.656Z,21.33
2023-06-16T04:17:53.794Z,21.40
2023-06-16T04:20:22.922Z,21.49
2023-06-16T04:22:50.898Z,21.57
2023-06-16T04:25:19.464Z,21.66
2023-06-16T04:27:51.135Z,21.71
2023-06-16T04:30:23.588Z,21.76
2023-06-16T04:32:52.002Z,21.91
2023-06-16T04:35:22.798Z,22.07
2023-06-16T04:37:50.335Z,22.19
2023-06-16T04:40:18.609Z,22.31
2023-06-16T04:42:48.517Z,22.45
2023-06-16T04:45:16.912Z,22.60
2023-06-16T04:47:46.229Z,22.73
2023-06-16T04:50:14.988Z,22.86
2023-06-16T04:52:42.571Z,23.00
2023-06-16T04:55:10.270Z,23.14
2023-06-16T04:59:33.343Z,23.33
2023-06-16T05:02:00.727Z,23.43
2023-06-16T05:04:28.308Z,23.50
2023-06-16T05:06:55.108Z,23.57
2023-06-16T05:09:21.972Z,23.62
2023-06-16T05:11:49.237Z,23.67
2023-06-16T05:14:16.323Z,23.72
2023-06-16T05:16:43.462Z,23.76
2023-06-16T05:19:10.846Z,23.80
2023-06-16T05:21:43.392Z,23.88
2023-06-16T05:24:10.967Z,24.00
2023-06-16T05:26:38.796Z,24.15
2023-06-16T05:29:06.039Z,24.24
2023-06-16T05:31:35.536Z,24.31
2023-06-16T05:34:02.522Z,24.38
2023-06-16T05:36:32.081Z,24.42
2023-06-16T05:38:58.991Z,24.46
2023-06-16T05:41:31.282Z,24.49
2023-06-16T05:43:58.369Z,24.53
2023-06-16T05:46:25.366Z,24.59
2023-06-16T05:48:52.763Z,24.65
2023-06-16T05:51:19.650Z,24.69
2023-06-16T05:53:46.624Z,24.68
2023-06-16T05:56:13.544Z,24.67
2023-06-16T05:58:41.195Z,24.67
2023-06-16T06:01:07.996Z,24.67
2023-06-16T06:03:36.546Z,24.68
2023-06-16T06:06:05.688Z,24.66
2023-06-16T06:08:32.714Z,24.74
2023-06-16T06:11:02.595Z,24.80
2023-06-16T06:13:29.661Z,24.92
2023-06-16T06:15:56.878Z,25.08
2023-06-16T06:18:23.822Z,25.24
2023-06-16T06:20:52.066Z,25.36
2023-06-16T06:23:19.024Z,25.46
2023-06-16T06:25:46.536Z,25.48
2023-06-16T06:28:16.326Z,25.40
2023-06-16T06:30:42.881Z,25.30
2023-06-16T06:33:09.588Z,25.15
2023-06-16T06:35:36.697Z,25.03
2023-06-16T06:38:05.450Z,25.04
2023-06-16T06:40:33.161Z,25.06
2023-06-16T06:43:00.875Z,25.06
2023-06-16T06:45:38.313Z,25.01
2023-06-16T06:48:05.350Z,24.96
2023-06-16T06:50:32.763Z,24.91
2023-06-16T06:52:59.433Z,24.93
2023-06-16T06:55:26.051Z,24.99
2023-06-16T06:57:52.888Z,25.07
2023-06-16T07:00:19.746Z,25.16
2023-06-16T07:02:47.970Z,25.25
2023-06-16T07:05:15.189Z,25.34
2023-06-16T07:07:42.029Z,25.43
2023-06-16T07:10:11.074Z,25.50
2023-06-16T07:12:37.918Z,25.55
2023-06-16T07:15:05.115Z,25.59
2023-06-16T07:17:34.639Z,25.63
2023-06-16T07:20:01.712Z,25.66
2023-06-16T07:22:28.794Z,25.72
2023-06-16T07:24:55.569Z,25.79
2023-06-16T07:27:22.920Z,25.85
2023-06-16T07:29:49.534Z,25.82
2023-06-16T07:32:16.052Z,25.86
2023-06-16T07:34:42.820Z,25.88
2023-06-16T07:37:09.487Z,25.89
2023-06-16T07:39:36.789Z,25.91
2023-06-16T07:42:03.984Z,25.89
2023-06-16T07:44:31.351Z,25.89
2023-06-16T07:47:10.475Z,25.91
2023-06-16T07:49:38.301Z,25.93
2023-06-16T07:52:05.147Z,25.96
2023-06-16T07:54:32.380Z,25.98
2023-06-16T07:56:59.248Z,26.01
2023-06-16T07:59:27.292Z,26.04
2023-06-16T08:01:54.747Z,26.10
2023-06-16T08:04:21.632Z,26.15
2023-06-16T08:06:48.791Z,26.21
2023-06-16T08:09:16.134Z,26.29
2023-06-16T08:11:43.307Z,26.39
2023-06-16T08:14:10.324Z,26.47
2023-06-16T08:16:37.097Z,26.59
2023-06-16T08:19:03.625Z,26.70
2023-06-16T08:21:30.548Z,26.80
2023-06-16T08:23:58.025Z,26.87
2023-06-16T08:26:24.726Z,26.94
2023-06-16T08:28:56.327Z,26.98
2023-06-16T08:31:23.047Z,27.01
2023-06-16T08:33:55.334Z,27.07
2023-06-16T08:36:24.001Z,27.19
2023-06-16T08:38:53.675Z,27.39
2023-06-16T08:41:20.556Z,27.61
2023-06-16T08:43:51.664Z,27.80
2023-06-16T08:46:18.804Z,28.04
2023-06-16T08:48:46.084Z,28.30
2023-06-16T08:51:14.751Z,28.56
2023-06-16T08:53:41.890Z,28.80
2023-06-16T08:56:09.700Z,29.05
2023-06-16T08:58:37.860Z,29.29
2023-06-16T09:01:07.362Z,29.53
2023-06-16T09:03:35.559Z,29.81
2023-06-16T09:06:02.948Z,29.97
2023-06-16T09:08:30.425Z,30.06
2023-06-16T09:10:57.453Z,30.23
2023-06-16T09:13:27.571Z,30.50
2023-06-16T09:15:57.620Z,30.78
2023-06-16T09:18:25.502Z,31.04
2023-06-16T09:20:53.525Z,31.08
2023-06-16T09:23:30.275Z,31.21
2023-06-16T09:25:57.063Z,31.64
2023-06-16T09:28:34.994Z,32.19
2023-06-16T09:31:11.699Z,32.67
2023-06-16T09:33:40.093Z,33.10
2023-06-16T09:36:08.181Z,33.31
2023-06-16T09:38:38.664Z,33.54
2023-06-16T09:41:09.699Z,33.92
2023-06-16T09:43:40.364Z,34.39
2023-06-16T09:46:10.232Z,34.76
2023-06-16T09:48:48.096Z,35.03
2023-06-16T09:51:18.621Z,35.30
2023-06-16T09:53:46.375Z,35.60
2023-06-16T09:56:17.018Z,35.89
2023-06-16T09:58:44.927Z,36.27
2023-06-16T10:01:13.961Z,36.61
2023-06-16T10:03:42.213Z,36.81
2023-06-16T10:06:15.124Z,36.73
2023-06-16T10:08:41.829Z,36.51
2023-06-16T10:11:10.920Z,36.16
2023-06-16T10:13:38.745Z,36.07
2023-06-16T10:16:06.327Z,36.34
2023-06-16T10:18:33.028Z,36.82
2023-06-16T10:21:00.038Z,37.25
2023-06-16T10:23:26.855Z,37.57
2023-06-16T10:25:53.343Z,37.81
2023-06-16T10:28:20.854Z,38.20
2023-06-16T10:30:49.101Z,38.52
2023-06-16T10:33:29.149Z,38.88
2023-06-16T10:36:11.430Z,39.07
2023-06-16T10:38:43.003Z,39.24
2023-06-16T10:41:15.321Z,39.43
2023-06-16T10:43:42.280Z,39.62
2023-06-16T10:46:16.839Z,39.56
2023-06-16T10:48:57.409Z,39.32
2023-06-16T10:51:41.549Z,39.40
2023-06-16T10:54:09.028Z,39.56
2023-06-16T10:57:10.602Z,39.70
2023-06-16T10:59:51.639Z,39.89
2023-06-16T11:02:19.570Z,40.19
2023-06-16T11:05:09.374Z,40.51
2023-06-16T11:08:06.932Z,40.81
2023-06-16T11:10:52.747Z,40.93
2023-06-16T11:13:32.657Z,40.75
2023-06-16T11:16:00.466Z,40.78
2023-06-16T11:18:28.250Z,41.06
2023-06-16T11:20:58.870Z,41.18
2023-06-16T11:23:25.834Z,40.96
2023-06-16T11:25:53.493Z,40.66
2023-06-16T11:28:21.453Z,40.46
2023-06-16T11:30:49.147Z,40.58
2023-06-16T11:33:16.773Z,40.83
2023-06-16T11:35:43.676Z,41.16
2023-06-16T11:38:10.809Z,41.36
2023-06-16T11:40:38.144Z,41.45
2023-06-16T11:43:08.162Z,41.34
2023-06-16T11:45:38.293Z,41.27
2023-06-16T11:48:09.203Z,41.45
2023-06-16T11:50:36.396Z,41.66
2023-06-16T11:53:03.184Z,42.00
2023-06-16T11:55:30.554Z,42.34
2023-06-16T11:58:00.486Z,42.52
2023-06-16T12:00:27.824Z,42.69
2023-06-16T12:02:54.722Z,42.77
2023-06-16T12:05:24.777Z,42.88
2023-06-16T12:07:51.812Z,43.04
2023-06-16T12:10:18.758Z,42.98
2023-06-16T12:12:46.584Z,42.72
2023-06-16T12:15:17.667Z,42.22
2023-06-16T12:17:45.640Z,41.81
2023-06-16T12:20:13.286Z,41.72
2023-06-16T12:22:41.238Z,41.82
2023-06-16T12:25:15.630Z,42.00
2023-06-16T12:27:49.835Z,42.36
2023-06-16T12:30:16.881Z,42.63
2023-06-16T12:32:45.495Z,42.50
2023-06-16T12:35:12.769Z,42.01
2023-06-16T12:37:40.641Z,41.22
2023-06-16T12:40:11.472Z,40.48
2023-06-16T12:42:38.426Z,39.73
2023-06-16T12:45:05.942Z,39.23
2023-06-16T12:47:33.711Z,39.11
2023-06-16T12:50:02.974Z,39.37
2023-06-16T12:52:30.265Z,39.82
2023-06-16T12:54:58.576Z,40.21
2023-06-16T12:57:26.325Z,40.64
2023-06-16T12:59:53.351Z,41.15
2023-06-16T13:02:21.492Z,41.61
2023-06-16T13:04:48.478Z,41.92
2023-06-16T13:07:15.499Z,42.08
2023-06-16T13:09:42.959Z,42.14
2023-06-16T13:12:10.375Z,42.07
2023-06-16T13:14:37.630Z,42.13
2023-06-16T13:17:05.179Z,42.22
2023-06-16T13:19:32.808Z,42.20
2023-06-16T13:22:02.371Z,42.21
2023-06-16T13:24:30.535Z,41.98
2023-06-16T13:26:57.643Z,41.56
2023-06-16T13:29:27.323Z,41.01
2023-06-16T13:31:54.095Z,40.16
2023-06-16T13:34:20.984Z,39.18
2023-06-16T13:36:47.843Z,38.34
2023-06-16T13:39:15.210Z,37.58
2023-06-16T13:41:42.215Z,36.88
2023-06-16T13:44:10.166Z,36.18
2023-06-16T13:46:37.118Z,35.46
2023-06-16T13:49:03.945Z,34.76
2023-06-16T13:51:31.260Z,34.20
2023-06-16T13:53:58.076Z,33.77
2023-06-16T13:56:24.627Z,33.43
2023-06-16T13:58:51.283Z,33.09
2023-06-16T14:01:18.308Z,32.74
2023-06-16T14:03:45.651Z,32.40
2023-06-16T14:06:14.505Z,32.06
2023-06-16T14:08:41.609Z,31.78
2023-06-16T14:11:08.354Z,31.56
2023-06-16T14:13:35.460Z,31.42
2023-06-16T14:16:03.770Z,31.27
2023-06-16T14:18:30.823Z,31.15
2023-06-16T14:20:57.636Z,31.04
2023-06-16T14:23:24.387Z,30.89
2023-06-16T14:25:51.303Z,30.74
2023-06-16T14:28:18.012Z,30.59
2023-06-16T14:30:44.740Z,30.51
2023-06-16T14:33:12.446Z,30.48
2023-06-16T14:35:40.881Z,30.42
2023-06-16T14:38:07.969Z,30.32
2023-06-16T14:40:35.834Z,30.18
2023-06-16T14:43:02.554Z,30.03
2023-06-16T14:45:30.706Z,29.94
2023-06-16T14:47:57.547Z,29.89
2023-06-16T14:50:24.554Z,29.86
2023-06-16T14:52:51.781Z,29.81
2023-06-16T14:55:18.857Z,29.75
2023-06-16T14:57:45.760Z,29.68
2023-06-16T15:00:13.328Z,29.60
2023-06-16T15:02:40.706Z,29.48
2023-06-16T15:05:08.725Z,29.37
2023-06-16T15:07:37.423Z,29.30
2023-06-16T15:10:04.928Z,29.27
2023-06-16T15:12:32.561Z,29.20
2023-06-16T15:14:59.336Z,29.11
2023-06-16T15:17:26.245Z,29.04
2023-06-16T15:19:53.275Z,28.97
2023-06-16T15:22:20.278Z,28.88
2023-06-16T15:24:47.016Z,28.80
2023-06-16T15:27:13.935Z,28.76
2023-06-16T15:29:41.407Z,28.74
2023-06-16T15:32:10.925Z,28.72
2023-06-16T15:34:38.310Z,28.71
2023-06-16T15:37:06.304Z,28.67
2023-06-16T15:39:34.866Z,28.63
2023-06-16T15:42:03.670Z,28.60
2023-06-16T15:44:30.412Z,28.56
2023-06-16T15:46:57.629Z,28.53
2023-06-16T15:49:25.297Z,28.46
2023-06-16T15:51:52.714Z,28.41
2023-06-16T15:54:20.142Z,28.35
2023-06-16T15:56:46.792Z,28.27
2023-06-16T15:59:13.480Z,28.21
2023-06-16T16:01:41.684Z,28.16
2023-06-16T16:04:09.421Z,28.10
2023-06-16T16:06:39.013Z,28.07
2023-06-16T16:09:09.746Z,28.01
2023-06-16T16:11:41.073Z,27.95
2023-06-16T16:14:08.231Z,27.90
2023-06-16T16:16:35.367Z,27.83
2023-06-16T16:19:02.181Z,27.81
2023-06-16T16:21:29.125Z,27.76
2023-06-16T16:23:58.957Z,27.74
2023-06-16T16:26:26.010Z,27.74
2023-06-16T16:28:52.982Z,27.72
2023-06-16T16:31:21.382Z,27.68
2023-06-16T16:33:48.798Z,27.64
2023-06-16T16:36:16.698Z,27.60
2023-06-16T16:38:44.221Z,27.59
2023-06-16T16:41:11.002Z,27.59
2023-06-16T16:43:38.385Z,27.59
2023-06-16T16:46:05.704Z,27.57
2023-06-16T16:48:33.029Z,27.57
2023-06-16T16:51:00.208Z,27.55
2023-06-16T16:53:28.028Z,27.54
2023-06-16T16:55:55.059Z,27.54
2023-06-16T16:58:23.033Z,27.54
2023-06-16T17:00:50.185Z,27.53
2023-06-16T17:03:17.079Z,27.49
2023-06-16T17:05:44.559Z,27.45
2023-06-16T17:08:11.828Z,27.42
2023-06-16T17:10:38.619Z,27.39
2023-06-16T17:13:18.149Z,27.34
2023-06-16T17:17:35.931Z,27.29
2023-06-16T17:20:05.590Z,27.23
2023-06-16T17:22:33.081Z,27.18
2023-06-16T17:25:01.365Z,27.13
2023-06-16T17:27:30.888Z,27.07
2023-06-16T17:30:02.258Z,27.00
2023-06-16T17:32:29.806Z,26.94
2023-06-16T17:34:59.747Z,26.87
2023-06-16T17:37:30.340Z,26.81
2023-06-16T17:39:59.189Z,26.74
2023-06-16T17:42:29.501Z,26.69
2023-06-16T17:44:58.707Z,26.64
2023-06-16T17:47:31.594Z,26.60
2023-06-16T17:50:01.598Z,26.57
2023-06-16T17:52:29.909Z,26.52
2023-06-16T17:54:59.310Z,26.46
2023-06-16T17:57:27.137Z,26.41
2023-06-16T17:59:57.441Z,26.37
2023-06-16T18:02:25.873Z,26.32
2023-06-16T18:04:53.904Z,26.26
2023-06-16T18:07:22.267Z,26.22
2023-06-16T18:09:49.781Z,26.16
2023-06-16T18:12:17.421Z,26.11
2023-06-16T18:14:45.271Z,26.05
2023-06-16T18:17:12.962Z,26.00
2023-06-16T18:19:40.836Z,25.97
2023-06-16T18:22:08.258Z,25.92
2023-06-16T18:24:38.411Z,25.87
2023-06-16T18:27:06.125Z,25.80
2023-06-16T18:29:36.199Z,25.73
2023-06-16T18:32:03.977Z,25.68
2023-06-16T18:34:32.289Z,25.65
2023-06-16T18:37:01.624Z,25.62
2023-06-16T18:39:34.666Z,25.58
2023-06-16T18:42:03.568Z,25.54
2023-06-16T18:44:31.498Z,25.50
2023-06-16T18:47:00.695Z,25.46
2023-06-16T18:49:28.322Z,25.41
2023-06-16T18:51:57.553Z,25.36
2023-06-16T18:54:25.663Z,25.31
2023-06-16T18:56:53.456Z,25.27
2023-06-16T18:59:20.928Z,25.22
2023-06-16T19:01:48.696Z,25.18
2023-06-16T19:04:17.168Z,25.13
2023-06-16T19:06:44.889Z,25.09
2023-06-16T19:09:15.048Z,25.06
2023-06-16T19:11:42.962Z,25.01
2023-06-16T19:14:10.399Z,24.97
2023-06-16T19:16:38.123Z,24.91
2023-06-16T19:19:05.879Z,24.88
2023-06-16T19:21:33.857Z,24.84
2023-06-16T19:24:01.747Z,24.82
2023-06-16T19:26:29.415Z,24.78
2023-06-16T19:28:57.091Z,24.73
2023-06-16T19:31:27.132Z,24.68
2023-06-16T19:33:55.262Z,24.64
2023-06-16T19:36:23.187Z,24.62
2023-06-16T19:38:53.892Z,24.59
2023-06-16T19:41:21.721Z,24.55
2023-06-16T19:43:49.247Z,24.51
2023-06-16T19:46:19.094Z,24.48
2023-06-16T19:48:47.566Z,24.44
2023-06-16T19:51:15.337Z,24.39
2023-06-16T19:53:42.823Z,24.34
2023-06-16T19:56:10.572Z,24.30
2023-06-16T19:58:38.001Z,24.23
2023-06-16T20:01:06.056Z,24.14
2023-06-16T20:03:33.961Z,24.06
2023-06-16T20:06:01.728Z,23.95
2023-06-16T20:08:29.308Z,23.88
2023-06-16T20:10:56.838Z,23.78
2023-06-16T20:13:24.362Z,23.67
2023-06-16T20:15:51.831Z,23.56
2023-06-16T20:18:19.733Z,23.47
2023-06-16T20:20:50.259Z,23.35
2023-06-16T20:23:18.538Z,23.27
2023-06-16T20:25:46.557Z,23.20
2023-06-16T20:28:14.316Z,23.13
2023-06-16T20:30:42.076Z,23.09
2023-06-16T20:33:10.484Z,23.03
2023-06-16T20:35:38.317Z,22.93
2023-06-16T20:38:05.957Z,22.86
2023-06-16T20:40:34.555Z,22.80
2023-06-16T20:43:04.383Z,22.73
2023-06-16T20:45:32.494Z,22.68
2023-06-16T20:48:00.088Z,22.64
2023-06-16T20:50:28.705Z,22.61
2023-06-16T20:52:58.267Z,22.56
2023-06-16T20:55:25.816Z,22.52
2023-06-16T20:57:58.027Z,22.47
2023-06-16T21:00:30.303Z,22.40
2023-06-16T21:02:58.829Z,22.33
2023-06-16T21:05:26.654Z,22.27
2023-06-16T21:07:58.495Z,22.21
2023-06-16T21:10:28.725Z,22.19
2023-06-16T21:12:56.208Z,22.17
2023-06-16T21:15:23.849Z,22.13
2023-06-16T21:17:51.368Z,22.09
2023-06-16T21:20:20.539Z,22.06
2023-06-16T21:22:52.366Z,22.07
2023-06-16T21:25:19.884Z,22.05
2023-06-16T21:27:47.493Z,22.03
2023-06-16T21:30:15.017Z,22.01
2023-06-16T21:32:42.634Z,21.99
2023-06-16T21:35:11.916Z,21.97
2023-06-16T21:37:41.974Z,21.95
2023-06-16T21:40:11.707Z,21.93
2023-06-16T21:42:40.924Z,21.88
2023-06-16T21:45:09.439Z,21.83
2023-06-16T21:47:37.029Z,21.79
2023-06-16T21:50:05.549Z,21.76
2023-06-16T21:52:32.964Z,21.72
2023-06-16T21:55:01.814Z,21.68
2023-06-16T21:57:29.768Z,21.62
2023-06-16T21:59:57.953Z,21.53
2023-06-16T22:02:26.170Z,21.44
2023-06-16T22:04:53.758Z,21.35
2023-06-16T22:07:22.159Z,21.29
2023-06-16T22:09:52.214Z,21.25
2023-06-16T22:12:19.988Z,21.20
2023-06-16T22:14:47.782Z,21.15
2023-06-16T22:17:15.720Z,21.10
2023-06-16T22:19:44.164Z,21.07
2023-06-16T22:22:12.379Z,21.05
2023-06-16T22:24:42.536Z,21.04
2023-06-16T22:29:41.033Z,21.04
2023-06-16T22:32:08.780Z,21.02
2023-06-16T22:34:36.455Z,21.00
2023-06-16T22:37:04.276Z,20.98
2023-06-16T22:39:31.728Z,20.96
2023-06-16T22:42:00.255Z,20.95
2023-06-16T22:44:27.668Z,20.93
2023-06-16T22:46:57.572Z,20.92
2023-06-16T22:49:25.583Z,20.91
2023-06-16T22:51:54.601Z,20.91
2023-06-16T22:54:22.045Z,20.90
2023-06-16T22:56:49.543Z,20.89
2023-06-16T22:59:17.055Z,20.87
2023-06-16T23:01:44.549Z,20.83
2023-06-16T23:04:12.200Z,20.79
2023-06-16T23:06:40.414Z,20.75
2023-06-16T23:09:07.999Z,20.73
2023-06-16T23:11:35.541Z,20.69
2023-06-16T23:14:03.663Z,20.66
2023-06-16T23:16:31.269Z,20.61
2023-06-16T23:18:58.949Z,20.53
2023-06-16T23:21:27.846Z,20.48
2023-06-16T23:23:56.501Z,20.42
2023-06-16T23:26:24.344Z,20.37
2023-06-16T23:28:51.874Z,20.32
2023-06-16T23:31:20.446Z,20.28
2023-06-16T23:33:48.548Z,20.25
2023-06-16T23:36:19.179Z,20.21
2023-06-16T23:38:46.697Z,20.17
2023-06-16T23:41:14.400Z,20.12
2023-06-16T23:43:41.918Z,20.07
2023-06-16T23:46:09.433Z,20.02
2023-06-16T23:48:36.900Z,19.99
2023-06-16T23:51:04.353Z,19.94
2023-06-16T23:53:32.613Z,19.89
2023-06-16T23:56:00.209Z,19.85
2023-06-16T23:58:29.393Z,19.80
